createdAt,value
2023-12-09T00:01:10.795Z,98827.71
2023-12-09T00:06:17.450Z,98825.25
2023-12-09T00:11:23.520Z,98817.67
2023-12-09T00:16:29.380Z,98819.23
2023-12-09T00:21:35.228Z,98816.93
2023-12-09T00:26:41.221Z,98805.48
2023-12-09T00:31:47.030Z,98805.21
2023-12-09T00:36:52.865Z,98806.15
2023-12-09T00:41:58.678Z,98815.51
2023-12-09T00:47:04.497Z,98820.55
2023-12-09T00:52:10.622Z,98814.68
2023-12-09T00:57:16.777Z,98817.06
2023-12-09T01:02:22.950Z,98820.23
2023-12-09T01:07:29.172Z,98825.13
2023-12-09T01:12:35.038Z,98826.19
2023-12-09T01:17:40.893Z,98830.66
2023-12-09T01:22:46.845Z,98831.13
2023-12-09T01:27:53.724Z,98838.34
2023-12-09T01:32:58.222Z,98838.85
2023-12-09T01:38:04.710Z,98839.33
2023-12-09T01:43:12.935Z,98831.75
2023-12-09T01:48:19.285Z,98831.41
2023-12-09T01:53:25.909Z,98825.59
2023-12-09T01:58:31.741Z,98831.29
2023-12-09T02:03:38.183Z,98832.23
2023-12-09T02:08:44.375Z,98829.88
2023-12-09T02:14:00.685Z,98831.66
2023-12-09T02:19:09.786Z,98834.52
2023-12-09T02:24:15.748Z,98835.11
2023-12-09T02:29:22.520Z,98834.11
2023-12-09T02:34:30.695Z,98834.11
2023-12-09T02:39:37.285Z,98831.58
2023-12-09T02:44:45.419Z,98836.44
2023-12-09T02:49:51.525Z,98825.22
2023-12-09T02:54:57.425Z,98826.91
2023-12-09T03:00:04.983Z,98830.85
2023-12-09T03:05:11.600Z,98830.35
2023-12-09T03:10:17.651Z,98824.48
2023-12-09T03:15:23.741Z,98818.79
2023-12-09T03:20:29.624Z,98826.35
2023-12-09T03:25:35.443Z,98824.68
2023-12-09T03:30:41.397Z,98821.02
2023-12-09T03:35:47.212Z,98815.55
2023-12-09T03:40:53.005Z,98813.17
2023-12-09T03:45:59.356Z,98805.23
2023-12-09T03:51:05.496Z,98808.60
2023-12-09T03:56:13.736Z,98807.72
2023-12-09T04:01:19.609Z,98807.39
2023-12-09T04:06:25.459Z,98816.20
2023-12-09T04:11:31.502Z,98816.52
2023-12-09T04:16:37.289Z,98822.06
2023-12-09T04:21:43.296Z,98823.41
2023-12-09T04:26:49.167Z,98820.85
2023-12-09T04:31:54.930Z,98821.16
2023-12-09T04:37:01.618Z,98825.02
2023-12-09T04:42:07.751Z,98821.10
2023-12-09T04:47:14.145Z,98821.59
2023-12-09T04:52:20.035Z,98819.85
2023-12-09T04:57:26.275Z,98820.67
2023-12-09T05:02:32.276Z,98819.05
2023-12-09T05:07:38.217Z,98816.23
2023-12-09T05:12:44.225Z,98815.94
2023-12-09T05:17:50.243Z,98814.02
2023-12-09T05:22:56.039Z,98813.99
2023-12-09T05:28:02.040Z,98814.23
2023-12-09T05:33:08.236Z,98815.58
2023-12-09T05:38:14.017Z,98817.98
2023-12-09T05:43:19.841Z,98814.75
2023-12-09T05:48:25.860Z,98813.66
2023-12-09T05:53:32.379Z,98809.60
2023-12-09T05:58:38.184Z,98809.79
2023-12-09T06:03:44.093Z,98808.70
2023-12-09T06:08:50.457Z,98806.92
2023-12-09T06:13:56.876Z,98808.81
2023-12-09T06:19:02.664Z,98809.06
2023-12-09T06:24:09.534Z,98807.86
2023-12-09T06:29:17.339Z,98808.42
2023-12-09T06:34:23.215Z,98813.02
2023-12-09T06:39:29.173Z,98808.95
2023-12-09T06:44:35.074Z,98811.77
2023-12-09T06:49:41.038Z,98820.65
2023-12-09T06:54:46.957Z,98821.77
2023-12-09T06:59:52.725Z,98813.13
2023-12-09T07:04:58.625Z,98806.54
2023-12-09T07:10:06.765Z,98808.98
2023-12-09T07:15:13.678Z,98807.74
2023-12-09T07:20:19.731Z,98799.66
2023-12-09T07:25:25.992Z,98801.92
2023-12-09T07:30:32.197Z,98806.21
2023-12-09T07:35:38.251Z,98811.52
2023-12-09T07:40:44.105Z,98812.42
2023-12-09T07:45:50.233Z,98811.76
2023-12-09T07:50:56.143Z,98813.62
2023-12-09T07:56:02.051Z,98809.22
2023-12-09T08:01:11.204Z,98807.88
2023-12-09T08:06:18.001Z,98801.61
2023-12-09T08:11:23.824Z,98807.96
2023-12-09T08:16:29.595Z,98813.63
2023-12-09T08:21:39.907Z,98809.77
2023-12-09T08:26:46.104Z,98809.98
2023-12-09T08:31:51.891Z,98814.60
2023-12-09T08:36:57.692Z,98812.83
2023-12-09T08:42:03.537Z,98816.04
2023-12-09T08:47:09.532Z,98819.02
2023-12-09T08:52:15.671Z,98814.65
2023-12-09T08:57:21.797Z,98811.86
2023-12-09T09:02:28.841Z,98814.14
2023-12-09T09:07:40.036Z,98812.84
2023-12-09T09:12:47.193Z,98810.98
2023-12-09T09:17:53.181Z,98804.74
2023-12-09T09:22:59.340Z,98810.87
2023-12-09T09:28:05.730Z,98811.86
2023-12-09T09:33:12.122Z,98807.02
2023-12-09T09:38:18.464Z,98800.23
2023-12-09T09:43:27.805Z,98794.23
2023-12-09T09:48:36.714Z,98794.21
2023-12-09T09:53:49.332Z,98789.94
2023-12-09T09:58:56.124Z,98786.27
2023-12-09T10:04:00.651Z,98779.98
2023-12-09T10:09:07.125Z,98772.59
2023-12-09T10:14:13.343Z,98768.47
2023-12-09T10:19:22.309Z,98762.44
2023-12-09T10:24:28.707Z,98756.48
2023-12-09T10:29:35.264Z,98756.66
2023-12-09T10:34:41.412Z,98751.09
2023-12-09T10:39:48.202Z,98754.05
2023-12-09T10:44:54.107Z,98752.70
2023-12-09T10:50:00.839Z,98748.21
2023-12-09T10:55:08.530Z,98742.27
2023-12-09T11:00:16.945Z,98734.20
2023-12-09T11:05:23.971Z,98728.34
2023-12-09T11:10:28.441Z,98730.59
2023-12-09T11:15:34.341Z,98728.90
2023-12-09T11:20:43.261Z,98730.50
2023-12-09T11:25:49.220Z,98727.52
2023-12-09T11:30:59.918Z,98726.40
2023-12-09T11:36:07.051Z,98716.09
2023-12-09T11:41:13.055Z,98720.66
2023-12-09T11:46:19.280Z,98719.30
2023-12-09T11:51:25.466Z,98715.80
2023-12-09T11:56:31.953Z,98711.35
2023-12-09T12:01:38.431Z,98708.23
2023-12-09T12:06:44.586Z,98701.74
2023-12-09T12:11:53.039Z,98698.56
2023-12-09T12:16:59.042Z,98695.17
2023-12-09T12:22:06.543Z,98693.54
2023-12-09T12:27:12.916Z,98689.09
2023-12-09T12:32:18.996Z,98681.36
2023-12-09T12:37:24.934Z,98673.16
2023-12-09T12:42:32.181Z,98669.02
2023-12-09T12:47:38.540Z,98663.84
2023-12-09T12:52:45.450Z,98661.84
2023-12-09T12:57:51.940Z,98655.86
2023-12-09T13:02:58.937Z,98648.95
2023-12-09T13:08:06.230Z,98638.02
2023-12-09T13:13:12.718Z,98633.59
2023-12-09T13:18:20.493Z,98633.64
2023-12-09T13:23:28.877Z,98629.19
2023-12-09T13:28:33.318Z,98631.96
2023-12-09T13:33:39.517Z,98632.63
2023-12-09T13:38:46.076Z,98632.10
2023-12-09T13:43:52.173Z,98624.41
2023-12-09T13:48:58.283Z,98619.61
2023-12-09T13:54:04.966Z,98617.30
2023-12-09T13:59:11.049Z,98614.88
2023-12-09T14:04:17.113Z,98620.46
2023-12-09T14:09:24.618Z,98614.92
2023-12-09T14:14:31.102Z,98612.48
2023-12-09T14:19:38.872Z,98603.34
2023-12-09T14:24:45.032Z,98599.45
2023-12-09T14:29:51.690Z,98601.39
2023-12-09T14:34:57.919Z,98593.19
2023-12-09T14:40:05.088Z,98588.26
2023-12-09T14:45:12.535Z,98582.31
2023-12-09T14:50:19.218Z,98572.67
2023-12-09T14:55:25.657Z,98570.11
2023-12-09T15:00:31.923Z,98564.85
2023-12-09T15:05:38.241Z,98557.15
2023-12-09T15:10:44.366Z,98557.31
2023-12-09T15:15:50.761Z,98565.33
2023-12-09T15:20:57.019Z,98562.23
2023-12-09T15:26:03.162Z,98556.58
2023-12-09T15:31:09.368Z,98548.11
2023-12-09T15:36:15.980Z,98548.81
2023-12-09T15:41:22.933Z,98534.88
2023-12-09T15:46:28.998Z,98525.55
2023-12-09T15:51:35.180Z,98516.05
2023-12-09T15:56:41.341Z,98515.93
2023-12-09T16:01:48.219Z,98510.58
2023-12-09T16:06:54.759Z,98500.95
2023-12-09T16:12:00.988Z,98499.92
2023-12-09T16:17:07.448Z,98501.44
2023-12-09T16:22:13.442Z,98507.42
2023-12-09T16:27:19.607Z,98499.42
2023-12-09T16:32:28.524Z,98493.50
2023-12-09T16:37:35.365Z,98489.02
2023-12-09T16:42:41.950Z,98485.34
2023-12-09T16:47:48.359Z,98492.45
2023-12-09T16:52:54.293Z,98489.88
2023-12-09T16:58:00.451Z,98469.30
2023-12-09T17:03:06.683Z,98458.38
2023-12-09T17:08:12.854Z,98445.41
2023-12-09T17:13:18.924Z,98430.95
2023-12-09T17:18:25.210Z,98418.92
2023-12-09T17:23:33.323Z,98414.16
2023-12-09T17:28:40.277Z,98416.30
2023-12-09T17:33:46.406Z,98407.69
2023-12-09T17:38:52.486Z,98402.77
2023-12-09T17:43:59.049Z,98414.02
2023-12-09T17:49:06.040Z,98412.91
2023-12-09T17:54:12.709Z,98398.95
2023-12-09T17:59:18.726Z,98383.59
2023-12-09T18:04:25.166Z,98371.83
2023-12-09T18:09:31.577Z,98363.65
2023-12-09T18:14:37.983Z,98359.48
2023-12-09T18:19:46.918Z,98355.02
2023-12-09T18:24:53.027Z,98351.95
2023-12-09T18:29:59.647Z,98345.20
2023-12-09T18:35:10.060Z,98328.13
2023-12-09T18:40:16.814Z,98314.73
2023-12-09T18:45:21.155Z,98296.12
2023-12-09T18:50:27.651Z,98283.41
2023-12-09T18:55:34.088Z,98273.14
2023-12-09T19:00:40.464Z,98269.69
2023-12-09T19:05:46.484Z,98263.25
2023-12-09T19:10:52.451Z,98262.55
2023-12-09T19:15:58.614Z,98271.30
2023-12-09T19:21:05.011Z,98270.67
2023-12-09T19:26:11.497Z,98261.92
2023-12-09T19:31:17.590Z,98249.02
2023-12-09T19:36:23.945Z,98233.84
2023-12-09T19:41:29.990Z,98226.13
2023-12-09T19:46:36.503Z,98214.96
2023-12-09T19:51:42.776Z,98203.56
2023-12-09T19:56:49.104Z,98183.58
2023-12-09T20:01:55.070Z,98184.52
2023-12-09T20:07:01.231Z,98172.55
2023-12-09T20:12:07.908Z,98168.30
2023-12-09T20:17:14.099Z,98167.19
2023-12-09T20:22:21.401Z,98149.36
2023-12-09T20:27:27.526Z,98142.20
2023-12-09T20:32:33.851Z,98137.08
2023-12-09T20:37:40.277Z,98128.34
2023-12-09T20:42:46.398Z,98117.88
2023-12-09T20:47:52.814Z,98129.27
2023-12-09T20:52:58.967Z,98118.39
2023-12-09T20:58:05.425Z,98096.55
2023-12-09T21:03:12.444Z,98102.08
2023-12-09T21:08:18.671Z,98096.39
2023-12-09T21:13:25.196Z,98080.69
2023-12-09T21:18:31.214Z,98077.17
2023-12-09T21:23:37.216Z,98063.49
2023-12-09T21:28:43.314Z,98066.98
2023-12-09T21:33:49.326Z,98065.85
2023-12-09T21:38:55.439Z,98057.60
2023-12-09T21:44:01.355Z,98051.38
2023-12-09T21:49:07.437Z,98056.04
2023-12-09T21:54:14.750Z,98048.27
2023-12-09T21:59:21.052Z,98034.45
2023-12-09T22:04:27.111Z,97992.52
2023-12-09T22:09:33.121Z,97975.48
2023-12-09T22:14:39.284Z,97985.57
2023-12-09T22:19:45.130Z,97989.35
2023-12-09T22:24:51.206Z,97993.94
2023-12-09T22:29:57.094Z,97994.35
2023-12-09T22:35:04.118Z,97983.48
2023-12-09T22:40:11.871Z,97971.65
2023-12-09T22:45:18.379Z,97974.02
2023-12-09T22:50:24.449Z,97970.90
2023-12-09T22:55:30.700Z,97968.42
2023-12-09T23:00:38.446Z,97956.54
2023-12-09T23:05:45.249Z,97943.19
2023-12-09T23:10:51.138Z,97931.60
2023-12-09T23:15:57.095Z,97928.39
2023-12-09T23:21:03.137Z,97926.06
2023-12-09T23:26:09.668Z,97910.16
2023-12-09T23:31:20.124Z,97890.73
2023-12-09T23:36:31.536Z,97886.71
2023-12-09T23:41:37.447Z,97880.50
2023-12-09T23:46:43.477Z,97890.45
2023-12-09T23:51:49.543Z,97878.95
2023-12-09T23:56:55.551Z,97865.80
